sensor_id;sensor_type;location;lat;lon;timestamp;temperature;humidity
32534;DHT22;18973;48.580;8.912;2023-04-05T00:01:23;2.70;90.90
32534;DHT22;18973;48.580;8.912;2023-04-05T00:03:53;2.70;91.00
32534;DHT22;18973;48.580;8.912;2023-04-05T00:06:20;2.60;92.00
32534;DHT22;18973;48.580;8.912;2023-04-05T00:11:20;2.70;91.50
32534;DHT22;18973;48.580;8.912;2023-04-05T00:13:47;2.60;91.90
32534;DHT22;18973;48.580;8.912;2023-04-05T00:16:13;2.80;91.90
32534;DHT22;18973;48.580;8.912;2023-04-05T00:18:39;2.70;91.80
32534;DHT22;18973;48.580;8.912;2023-04-05T00:21:11;2.70;92.10
32534;DHT22;18973;48.580;8.912;2023-04-05T00:23:39;2.80;91.70
32534;DHT22;18973;48.580;8.912;2023-04-05T00:26:06;2.80;91.60
32534;DHT22;18973;48.580;8.912;2023-04-05T00:28:33;2.80;91.60
32534;DHT22;18973;48.580;8.912;2023-04-05T00:30:59;2.50;92.80
32534;DHT22;18973;48.580;8.912;2023-04-05T00:33:24;2.60;92.80
32534;DHT22;18973;48.580;8.912;2023-04-05T00:35:50;2.70;92.60
32534;DHT22;18973;48.580;8.912;2023-04-05T00:38:16;2.60;92.40
32534;DHT22;18973;48.580;8.912;2023-04-05T00:40:41;2.60;92.70
32534;DHT22;18973;48.580;8.912;2023-04-05T00:43:07;2.70;92.30
32534;DHT22;18973;48.580;8.912;2023-04-05T00:45:33;2.80;92.20
32534;DHT22;18973;48.580;8.912;2023-04-05T00:47:59;2.70;92.50
32534;DHT22;18973;48.580;8.912;2023-04-05T00:50:27;2.80;92.40
32534;DHT22;18973;48.580;8.912;2023-04-05T00:52:56;2.90;92.40
32534;DHT22;18973;48.580;8.912;2023-04-05T00:55:22;2.90;92.40
32534;DHT22;18973;48.580;8.912;2023-04-05T00:57:49;3.00;92.20
32534;DHT22;18973;48.580;8.912;2023-04-05T01:00:15;2.70;92.90
32534;DHT22;18973;48.580;8.912;2023-04-05T01:02:48;2.60;93.30
32534;DHT22;18973;48.580;8.912;2023-04-05T01:05:39;2.80;92.70
32534;DHT22;18973;48.580;8.912;2023-04-05T01:10:54;3.00;92.20
32534;DHT22;18973;48.580;8.912;2023-04-05T01:13:24;3.00;91.90
32534;DHT22;18973;48.580;8.912;2023-04-05T01:15:50;2.90;91.90
32534;DHT22;18973;48.580;8.912;2023-04-05T01:18:16;2.80;92.00
32534;DHT22;18973;48.580;8.912;2023-04-05T01:20:51;3.00;91.50
32534;DHT22;18973;48.580;8.912;2023-04-05T01:26:27;3.20;91.00
32534;DHT22;18973;48.580;8.912;2023-04-05T01:31:45;3.10;92.10
32534;DHT22;18973;48.580;8.912;2023-04-05T01:37:01;2.60;92.90
32534;DHT22;18973;48.580;8.912;2023-04-05T01:39:28;2.40;93.40
32534;DHT22;18973;48.580;8.912;2023-04-05T01:42:02;2.40;93.70
32534;DHT22;18973;48.580;8.912;2023-04-05T01:44:28;2.60;93.60
32534;DHT22;18973;48.580;8.912;2023-04-05T01:46:57;2.70;93.30
32534;DHT22;18973;48.580;8.912;2023-04-05T01:49:23;2.80;93.60
32534;DHT22;18973;48.580;8.912;2023-04-05T01:51:49;2.80;93.50
32534;DHT22;18973;48.580;8.912;2023-04-05T01:54:15;2.80;93.20
32534;DHT22;18973;48.580;8.912;2023-04-05T01:56:41;2.90;93.40
32534;DHT22;18973;48.580;8.912;2023-04-05T01:59:07;3.00;93.40
32534;DHT22;18973;48.580;8.912;2023-04-05T02:01:33;2.90;93.30
32534;DHT22;18973;48.580;8.912;2023-04-05T02:03:59;2.90;93.70
32534;DHT22;18973;48.580;8.912;2023-04-05T02:06:24;2.90;93.90
32534;DHT22;18973;48.580;8.912;2023-04-05T02:08:51;2.90;94.30
32534;DHT22;18973;48.580;8.912;2023-04-05T02:11:19;2.70;94.10
32534;DHT22;18973;48.580;8.912;2023-04-05T02:13:45;2.80;94.00
32534;DHT22;18973;48.580;8.912;2023-04-05T02:16:11;2.80;94.00
32534;DHT22;18973;48.580;8.912;2023-04-05T02:18:37;2.80;94.40
32534;DHT22;18973;48.580;8.912;2023-04-05T02:21:07;2.80;94.20
32534;DHT22;18973;48.580;8.912;2023-04-05T02:23:35;2.80;94.20
32534;DHT22;18973;48.580;8.912;2023-04-05T02:26:02;2.70;94.20
32534;DHT22;18973;48.580;8.912;2023-04-05T02:28:27;2.70;94.10
32534;DHT22;18973;48.580;8.912;2023-04-05T02:30:53;2.70;94.10
32534;DHT22;18973;48.580;8.912;2023-04-05T02:33:20;2.70;94.10
32534;DHT22;18973;48.580;8.912;2023-04-05T02:35:48;2.80;94.20
32534;DHT22;18973;48.580;8.912;2023-04-05T02:38:14;2.70;94.20
32534;DHT22;18973;48.580;8.912;2023-04-05T02:40:40;2.80;94.40
32534;DHT22;18973;48.580;8.912;2023-04-05T02:43:06;2.70;94.50
32534;DHT22;18973;48.580;8.912;2023-04-05T02:45:32;2.70;94.50
32534;DHT22;18973;48.580;8.912;2023-04-05T02:47:57;2.70;94.30
32534;DHT22;18973;48.580;8.912;2023-04-05T02:50:23;2.70;94.40
32534;DHT22;18973;48.580;8.912;2023-04-05T02:52:49;2.70;94.40
32534;DHT22;18973;48.580;8.912;2023-04-05T02:55:15;2.60;94.50
32534;DHT22;18973;48.580;8.912;2023-04-05T02:57:44;2.60;94.60
32534;DHT22;18973;48.580;8.912;2023-04-05T03:00:10;2.60;94.40
32534;DHT22;18973;48.580;8.912;2023-04-05T03:02:37;2.50;94.40
32534;DHT22;18973;48.580;8.912;2023-04-05T03:05:04;2.50;94.40
32534;DHT22;18973;48.580;8.912;2023-04-05T03:07:30;2.50;94.70
32534;DHT22;18973;48.580;8.912;2023-04-05T03:09:57;2.40;94.80
32534;DHT22;18973;48.580;8.912;2023-04-05T03:12:24;2.40;95.00
32534;DHT22;18973;48.580;8.912;2023-04-05T03:14:50;2.40;95.10
32534;DHT22;18973;48.580;8.912;2023-04-05T03:17:15;2.50;94.70
32534;DHT22;18973;48.580;8.912;2023-04-05T03:19:43;2.10;95.30
32534;DHT22;18973;48.580;8.912;2023-04-05T03:22:10;2.10;95.70
32534;DHT22;18973;48.580;8.912;2023-04-05T03:24:35;2.10;95.90
32534;DHT22;18973;48.580;8.912;2023-04-05T03:27:01;2.20;96.10
32534;DHT22;18973;48.580;8.912;2023-04-05T03:29:28;2.20;96.10
32534;DHT22;18973;48.580;8.912;2023-04-05T03:31:56;2.10;95.70
32534;DHT22;18973;48.580;8.912;2023-04-05T03:34:23;1.70;96.60
32534;DHT22;18973;48.580;8.912;2023-04-05T03:36:54;1.60;96.40
32534;DHT22;18973;48.580;8.912;2023-04-05T03:39:20;1.70;96.40
32534;DHT22;18973;48.580;8.912;2023-04-05T03:41:46;1.80;96.30
32534;DHT22;18973;48.580;8.912;2023-04-05T03:44:11;1.90;96.10
32534;DHT22;18973;48.580;8.912;2023-04-05T03:46:40;1.90;96.30
32534;DHT22;18973;48.580;8.912;2023-04-05T03:49:06;1.90;96.40
32534;DHT22;18973;48.580;8.912;2023-04-05T03:51:32;1.90;96.70
32534;DHT22;18973;48.580;8.912;2023-04-05T03:53:58;1.80;96.70
32534;DHT22;18973;48.580;8.912;2023-04-05T03:56:23;1.90;96.70
32534;DHT22;18973;48.580;8.912;2023-04-05T03:58:51;1.90;97.10
32534;DHT22;18973;48.580;8.912;2023-04-05T04:01:17;1.80;97.10
32534;DHT22;18973;48.580;8.912;2023-04-05T04:03:43;1.80;97.00
32534;DHT22;18973;48.580;8.912;2023-04-05T04:06:09;1.80;97.30
32534;DHT22;18973;48.580;8.912;2023-04-05T04:08:35;1.70;97.40
32534;DHT22;18973;48.580;8.912;2023-04-05T04:11:00;1.70;97.40
32534;DHT22;18973;48.580;8.912;2023-04-05T04:13:26;1.70;97.40
32534;DHT22;18973;48.580;8.912;2023-04-05T04:15:52;1.90;97.20
32534;DHT22;18973;48.580;8.912;2023-04-05T04:18:17;1.90;97.20
32534;DHT22;18973;48.580;8.912;2023-04-05T04:20:43;1.80;97.60
32534;DHT22;18973;48.580;8.912;2023-04-05T04:23:08;1.60;98.00
32534;DHT22;18973;48.580;8.912;2023-04-05T04:25:35;1.50;98.40
32534;DHT22;18973;48.580;8.912;2023-04-05T04:28:05;1.50;98.50
32534;DHT22;18973;48.580;8.912;2023-04-05T04:30:34;1.40;99.40
32534;DHT22;18973;48.580;8.912;2023-04-05T04:33:00;1.50;99.30
32534;DHT22;18973;48.580;8.912;2023-04-05T04:35:31;1.30;99.40
32534;DHT22;18973;48.580;8.912;2023-04-05T04:38:03;1.30;99.90
32534;DHT22;18973;48.580;8.912;2023-04-05T04:40:39;1.40;99.90
32534;DHT22;18973;48.580;8.912;2023-04-05T04:43:09;1.40;99.90
32534;DHT22;18973;48.580;8.912;2023-04-05T04:45:39;1.40;99.90
32534;DHT22;18973;48.580;8.912;2023-04-05T04:48:05;1.50;99.80
32534;DHT22;18973;48.580;8.912;2023-04-05T04:50:37;1.40;99.70
32534;DHT22;18973;48.580;8.912;2023-04-05T04:53:06;1.40;99.90
32534;DHT22;18973;48.580;8.912;2023-04-05T04:55:31;1.40;99.70
32534;DHT22;18973;48.580;8.912;2023-04-05T04:57:58;1.50;99.60
32534;DHT22;18973;48.580;8.912;2023-04-05T05:00:23;1.40;99.90
32534;DHT22;18973;48.580;8.912;2023-04-05T05:02:54;1.40;99.90
32534;DHT22;18973;48.580;8.912;2023-04-05T05:05:20;1.20;99.90
32534;DHT22;18973;48.580;8.912;2023-04-05T05:07:47;1.20;99.90
32534;DHT22;18973;48.580;8.912;2023-04-05T05:10:13;1.30;99.90
32534;DHT22;18973;48.580;8.912;2023-04-05T05:12:42;1.30;99.90
32534;DHT22;18973;48.580;8.912;2023-04-05T05:15:08;1.30;99.90
32534;DHT22;18973;48.580;8.912;2023-04-05T05:17:34;1.40;99.90
32534;DHT22;18973;48.580;8.912;2023-04-05T05:20:00;1.30;99.90
32534;DHT22;18973;48.580;8.912;2023-04-05T05:22:27;1.30;99.90
32534;DHT22;18973;48.580;8.912;2023-04-05T05:24:53;1.30;99.90
32534;DHT22;18973;48.580;8.912;2023-04-05T05:27:18;0.90;99.90
32534;DHT22;18973;48.580;8.912;2023-04-05T05:29:45;0.60;99.90
32534;DHT22;18973;48.580;8.912;2023-04-05T05:32:11;0.70;99.90
32534;DHT22;18973;48.580;8.912;2023-04-05T05:34:41;1.10;99.90
32534;DHT22;18973;48.580;8.912;2023-04-05T05:37:10;1.20;99.90
32534;DHT22;18973;48.580;8.912;2023-04-05T05:39:37;1.30;99.90
32534;DHT22;18973;48.580;8.912;2023-04-05T05:42:02;1.40;99.90
32534;DHT22;18973;48.580;8.912;2023-04-05T05:44:29;1.40;99.90
32534;DHT22;18973;48.580;8.912;2023-04-05T05:46:55;1.40;99.90
32534;DHT22;18973;48.580;8.912;2023-04-05T05:49:20;1.50;99.90
32534;DHT22;18973;48.580;8.912;2023-04-05T05:51:48;1.40;99.90
32534;DHT22;18973;48.580;8.912;2023-04-05T05:54:14;1.40;99.90
32534;DHT22;18973;48.580;8.912;2023-04-05T05:56:39;1.30;99.90
32534;DHT22;18973;48.580;8.912;2023-04-05T05:59:05;1.20;99.90
32534;DHT22;18973;48.580;8.912;2023-04-05T06:01:31;1.10;99.90
32534;DHT22;18973;48.580;8.912;2023-04-05T06:03:59;1.10;99.90
32534;DHT22;18973;48.580;8.912;2023-04-05T06:06:25;1.10;99.90
32534;DHT22;18973;48.580;8.912;2023-04-05T06:08:51;1.20;99.90
32534;DHT22;18973;48.580;8.912;2023-04-05T06:11:18;1.20;99.90
32534;DHT22;18973;48.580;8.912;2023-04-05T06:13:44;1.20;99.90
32534;DHT22;18973;48.580;8.912;2023-04-05T06:16:10;1.30;99.90
32534;DHT22;18973;48.580;8.912;2023-04-05T06:18:36;1.30;99.90
32534;DHT22;18973;48.580;8.912;2023-04-05T06:21:01;1.30;99.90
32534;DHT22;18973;48.580;8.912;2023-04-05T06:23:27;1.40;99.90
32534;DHT22;18973;48.580;8.912;2023-04-05T06:25:54;1.50;99.90
32534;DHT22;18973;48.580;8.912;2023-04-05T06:28:21;1.20;99.90
32534;DHT22;18973;48.580;8.912;2023-04-05T06:30:46;1.30;99.90
32534;DHT22;18973;48.580;8.912;2023-04-05T06:33:12;1.50;99.90
32534;DHT22;18973;48.580;8.912;2023-04-05T06:35:38;1.50;99.90
32534;DHT22;18973;48.580;8.912;2023-04-05T06:38:03;1.60;99.90
32534;DHT22;18973;48.580;8.912;2023-04-05T06:40:29;1.80;99.90
32534;DHT22;18973;48.580;8.912;2023-04-05T06:42:55;1.90;99.90
32534;DHT22;18973;48.580;8.912;2023-04-05T06:45:21;2.00;99.90
32534;DHT22;18973;48.580;8.912;2023-04-05T06:47:47;2.10;99.90
32534;DHT22;18973;48.580;8.912;2023-04-05T06:50:13;2.10;99.90
32534;DHT22;18973;48.580;8.912;2023-04-05T06:52:38;2.20;99.90
32534;DHT22;18973;48.580;8.912;2023-04-05T06:55:04;2.30;99.90
32534;DHT22;18973;48.580;8.912;2023-04-05T06:57:30;2.20;99.90
32534;DHT22;18973;48.580;8.912;2023-04-05T06:59:56;2.20;99.90
32534;DHT22;18973;48.580;8.912;2023-04-05T07:02:22;2.30;99.90
32534;DHT22;18973;48.580;8.912;2023-04-05T07:04:48;2.40;99.90
32534;DHT22;18973;48.580;8.912;2023-04-05T07:07:14;2.40;99.90
32534;DHT22;18973;48.580;8.912;2023-04-05T07:09:40;2.60;99.90
32534;DHT22;18973;48.580;8.912;2023-04-05T07:12:07;2.80;99.90
32534;DHT22;18973;48.580;8.912;2023-04-05T07:14:34;2.90;99.90
32534;DHT22;18973;48.580;8.912;2023-04-05T07:17:01;3.00;99.90
32534;DHT22;18973;48.580;8.912;2023-04-05T07:19:27;3.20;99.80
32534;DHT22;18973;48.580;8.912;2023-04-05T07:21:54;3.10;99.70
32534;DHT22;18973;48.580;8.912;2023-04-05T07:24:20;3.30;99.30
32534;DHT22;18973;48.580;8.912;2023-04-05T07:26:46;3.50;99.40
32534;DHT22;18973;48.580;8.912;2023-04-05T07:29:12;3.80;98.10
32534;DHT22;18973;48.580;8.912;2023-04-05T07:31:38;3.90;96.60
32534;DHT22;18973;48.580;8.912;2023-04-05T07:34:04;4.00;96.20
32534;DHT22;18973;48.580;8.912;2023-04-05T07:36:31;4.20;95.90
32534;DHT22;18973;48.580;8.912;2023-04-05T07:38:57;4.20;95.60
32534;DHT22;18973;48.580;8.912;2023-04-05T07:41:27;4.20;95.70
32534;DHT22;18973;48.580;8.912;2023-04-05T07:43:56;4.40;96.30
32534;DHT22;18973;48.580;8.912;2023-04-05T07:46:22;4.30;96.30
32534;DHT22;18973;48.580;8.912;2023-04-05T07:48:48;4.50;95.00
32534;DHT22;18973;48.580;8.912;2023-04-05T07:51:14;4.50;94.80
32534;DHT22;18973;48.580;8.912;2023-04-05T07:53:40;4.70;95.10
32534;DHT22;18973;48.580;8.912;2023-04-05T07:56:08;5.00;97.40
32534;DHT22;18973;48.580;8.912;2023-04-05T07:58:34;5.20;94.80
32534;DHT22;18973;48.580;8.912;2023-04-05T08:01:04;4.70;94.70
32534;DHT22;18973;48.580;8.912;2023-04-05T08:03:30;4.60;95.90
32534;DHT22;18973;48.580;8.912;2023-04-05T08:05:57;4.70;95.80
32534;DHT22;18973;48.580;8.912;2023-04-05T08:08:25;5.00;94.90
32534;DHT22;18973;48.580;8.912;2023-04-05T08:10:51;5.10;94.50
32534;DHT22;18973;48.580;8.912;2023-04-05T08:13:17;5.40;95.10
32534;DHT22;18973;48.580;8.912;2023-04-05T08:15:43;5.60;93.70
32534;DHT22;18973;48.580;8.912;2023-04-05T08:18:08;5.60;93.00
32534;DHT22;18973;48.580;8.912;2023-04-05T08:20:36;5.80;93.70
32534;DHT22;18973;48.580;8.912;2023-04-05T08:23:06;6.00;94.10
32534;DHT22;18973;48.580;8.912;2023-04-05T08:25:32;6.20;94.00
32534;DHT22;18973;48.580;8.912;2023-04-05T08:27:58;6.50;91.40
32534;DHT22;18973;48.580;8.912;2023-04-05T08:30:26;6.70;91.30
32534;DHT22;18973;48.580;8.912;2023-04-05T08:32:52;6.80;90.30
32534;DHT22;18973;48.580;8.912;2023-04-05T08:35:18;7.20;90.60
32534;DHT22;18973;48.580;8.912;2023-04-05T08:37:43;7.40;90.40
32534;DHT22;18973;48.580;8.912;2023-04-05T08:40:12;7.70;90.70
32534;DHT22;18973;48.580;8.912;2023-04-05T08:43:00;7.90;87.00
32534;DHT22;18973;48.580;8.912;2023-04-05T08:45:28;7.90;86.40
32534;DHT22;18973;48.580;8.912;2023-04-05T08:47:55;8.00;81.60
32534;DHT22;18973;48.580;8.912;2023-04-05T08:50:21;8.20;79.90
32534;DHT22;18973;48.580;8.912;2023-04-05T08:52:47;8.20;77.90
32534;DHT22;18973;48.580;8.912;2023-04-05T08:55:16;8.10;78.70
32534;DHT22;18973;48.580;8.912;2023-04-05T08:57:52;8.50;79.80
32534;DHT22;18973;48.580;8.912;2023-04-05T09:00:18;8.90;79.70
32534;DHT22;18973;48.580;8.912;2023-04-05T09:02:47;8.90;76.40
32534;DHT22;18973;48.580;8.912;2023-04-05T09:05:16;9.20;75.60
32534;DHT22;18973;48.580;8.912;2023-04-05T09:07:43;9.30;73.50
32534;DHT22;18973;48.580;8.912;2023-04-05T09:10:12;9.40;68.90
32534;DHT22;18973;48.580;8.912;2023-04-05T09:12:40;9.10;69.70
32534;DHT22;18973;48.580;8.912;2023-04-05T09:15:06;8.90;68.70
32534;DHT22;18973;48.580;8.912;2023-04-05T09:17:33;9.10;68.80
32534;DHT22;18973;48.580;8.912;2023-04-05T09:19:59;9.40;72.40
32534;DHT22;18973;48.580;8.912;2023-04-05T09:22:28;9.60;69.00
32534;DHT22;18973;48.580;8.912;2023-04-05T09:24:53;9.40;69.10
32534;DHT22;18973;48.580;8.912;2023-04-05T09:27:19;9.50;69.50
32534;DHT22;18973;48.580;8.912;2023-04-05T09:29:47;9.40;67.80
32534;DHT22;18973;48.580;8.912;2023-04-05T09:32:15;9.40;64.60
32534;DHT22;18973;48.580;8.912;2023-04-05T09:34:41;9.40;66.00
32534;DHT22;18973;48.580;8.912;2023-04-05T09:37:21;9.50;64.60
32534;DHT22;18973;48.580;8.912;2023-04-05T09:39:48;9.80;63.40
32534;DHT22;18973;48.580;8.912;2023-04-05T09:42:17;10.00;66.10
32534;DHT22;18973;48.580;8.912;2023-04-05T09:44:51;10.30;63.40
32534;DHT22;18973;48.580;8.912;2023-04-05T09:47:18;9.90;61.80
32534;DHT22;18973;48.580;8.912;2023-04-05T09:49:44;9.40;65.60
32534;DHT22;18973;48.580;8.912;2023-04-05T09:52:38;9.70;66.00
32534;DHT22;18973;48.580;8.912;2023-04-05T09:55:03;10.10;67.60
32534;DHT22;18973;48.580;8.912;2023-04-05T09:57:36;10.40;63.20
32534;DHT22;18973;48.580;8.912;2023-04-05T10:00:03;10.30;60.80
32534;DHT22;18973;48.580;8.912;2023-04-05T10:02:36;10.20;62.60
32534;DHT22;18973;48.580;8.912;2023-04-05T10:05:06;10.40;63.00
32534;DHT22;18973;48.580;8.912;2023-04-05T10:07:32;10.60;60.90
32534;DHT22;18973;48.580;8.912;2023-04-05T10:09:59;10.90;60.40
32534;DHT22;18973;48.580;8.912;2023-04-05T10:12:27;11.10;62.90
32534;DHT22;18973;48.580;8.912;2023-04-05T10:14:54;11.20;58.40
32534;DHT22;18973;48.580;8.912;2023-04-05T10:17:33;11.10;58.30
32534;DHT22;18973;48.580;8.912;2023-04-05T10:28:17;11.00;56.90
32534;DHT22;18973;48.580;8.912;2023-04-05T10:30:46;11.30;83.50
32534;DHT22;18973;48.580;8.912;2023-04-05T10:33:21;11.80;98.80
32534;DHT22;18973;48.580;8.912;2023-04-05T10:39:02;12.40;59.60
32534;DHT22;18973;48.580;8.912;2023-04-05T10:41:35;12.50;61.60
32534;DHT22;18973;48.580;8.912;2023-04-05T10:44:04;12.30;51.80
32534;DHT22;18973;48.580;8.912;2023-04-05T10:46:34;11.80;51.30
32534;DHT22;18973;48.580;8.912;2023-04-05T10:51:55;11.30;51.80
32534;DHT22;18973;48.580;8.912;2023-04-05T10:54:21;11.20;50.80
32534;DHT22;18973;48.580;8.912;2023-04-05T10:56:47;11.00;51.90
32534;DHT22;18973;48.580;8.912;2023-04-05T10:59:14;11.20;51.70
32534;DHT22;18973;48.580;8.912;2023-04-05T11:01:41;11.30;52.40
32534;DHT22;18973;48.580;8.912;2023-04-05T11:04:14;11.40;51.70
32534;DHT22;18973;48.580;8.912;2023-04-05T11:06:40;11.50;51.70
32534;DHT22;18973;48.580;8.912;2023-04-05T11:09:21;11.40;51.80
32534;DHT22;18973;48.580;8.912;2023-04-05T11:11:48;11.50;50.90
32534;DHT22;18973;48.580;8.912;2023-04-05T11:16:58;11.10;50.30
32534;DHT22;18973;48.580;8.912;2023-04-05T11:22:08;11.10;50.00
32534;DHT22;18973;48.580;8.912;2023-04-05T11:27:41;11.00;50.40
32534;DHT22;18973;48.580;8.912;2023-04-05T11:30:13;11.00;51.00
32534;DHT22;18973;48.580;8.912;2023-04-05T11:32:43;11.00;51.60
32534;DHT22;18973;48.580;8.912;2023-04-05T11:35:16;11.30;51.00
32534;DHT22;18973;48.580;8.912;2023-04-05T11:40:32;11.70;51.20
32534;DHT22;18973;48.580;8.912;2023-04-05T11:45:32;12.20;50.10
32534;DHT22;18973;48.580;8.912;2023-04-05T11:48:08;12.30;47.70
32534;DHT22;18973;48.580;8.912;2023-04-05T11:50:39;12.10;48.10
32534;DHT22;18973;48.580;8.912;2023-04-05T11:53:11;12.10;51.60
32534;DHT22;18973;48.580;8.912;2023-04-05T11:55:38;12.20;51.00
32534;DHT22;18973;48.580;8.912;2023-04-05T11:58:23;12.40;49.90
32534;DHT22;18973;48.580;8.912;2023-04-05T12:01:02;12.30;53.20
32534;DHT22;18973;48.580;8.912;2023-04-05T12:03:29;12.40;48.70
32534;DHT22;18973;48.580;8.912;2023-04-05T12:05:57;12.30;48.10
32534;DHT22;18973;48.580;8.912;2023-04-05T12:08:23;12.40;47.30
32534;DHT22;18973;48.580;8.912;2023-04-05T12:11:01;12.50;47.30
32534;DHT22;18973;48.580;8.912;2023-04-05T12:13:28;12.10;47.30
32534;DHT22;18973;48.580;8.912;2023-04-05T12:15:58;12.30;46.90
32534;DHT22;18973;48.580;8.912;2023-04-05T12:18:25;12.50;46.20
32534;DHT22;18973;48.580;8.912;2023-04-05T12:20:52;12.40;47.60
32534;DHT22;18973;48.580;8.912;2023-04-05T12:23:18;12.30;46.90
32534;DHT22;18973;48.580;8.912;2023-04-05T12:25:49;11.90;47.00
32534;DHT22;18973;48.580;8.912;2023-04-05T12:28:15;10.90;50.20
32534;DHT22;18973;48.580;8.912;2023-04-05T12:30:51;10.80;49.80
32534;DHT22;18973;48.580;8.912;2023-04-05T12:33:28;11.10;51.60
32534;DHT22;18973;48.580;8.912;2023-04-05T12:35:54;11.60;54.20
32534;DHT22;18973;48.580;8.912;2023-04-05T12:38:20;11.60;49.40
32534;DHT22;18973;48.580;8.912;2023-04-05T12:40:45;12.00;50.40
32534;DHT22;18973;48.580;8.912;2023-04-05T12:43:11;12.20;49.20
32534;DHT22;18973;48.580;8.912;2023-04-05T12:45:44;12.30;47.90
32534;DHT22;18973;48.580;8.912;2023-04-05T12:48:14;12.20;49.30
32534;DHT22;18973;48.580;8.912;2023-04-05T12:50:44;12.10;49.70
32534;DHT22;18973;48.580;8.912;2023-04-05T12:53:25;12.20;48.60
32534;DHT22;18973;48.580;8.912;2023-04-05T12:55:54;12.30;48.00
32534;DHT22;18973;48.580;8.912;2023-04-05T12:58:22;12.20;48.30
32534;DHT22;18973;48.580;8.912;2023-04-05T13:00:48;11.20;48.50
32534;DHT22;18973;48.580;8.912;2023-04-05T13:03:18;11.40;50.70
32534;DHT22;18973;48.580;8.912;2023-04-05T13:05:46;11.80;50.70
32534;DHT22;18973;48.580;8.912;2023-04-05T13:08:13;12.20;51.10
32534;DHT22;18973;48.580;8.912;2023-04-05T13:10:39;12.40;49.90
32534;DHT22;18973;48.580;8.912;2023-04-05T13:13:04;12.40;47.00
32534;DHT22;18973;48.580;8.912;2023-04-05T13:15:30;11.60;47.70
32534;DHT22;18973;48.580;8.912;2023-04-05T13:17:56;11.30;53.10
32534;DHT22;18973;48.580;8.912;2023-04-05T13:20:22;11.80;51.20
32534;DHT22;18973;48.580;8.912;2023-04-05T13:22:49;12.00;51.50
32534;DHT22;18973;48.580;8.912;2023-04-05T13:25:15;12.10;49.50
32534;DHT22;18973;48.580;8.912;2023-04-05T13:27:43;12.20;49.20
32534;DHT22;18973;48.580;8.912;2023-04-05T13:30:10;12.50;51.40
32534;DHT22;18973;48.580;8.912;2023-04-05T13:32:35;12.70;49.50
32534;DHT22;18973;48.580;8.912;2023-04-05T13:35:01;12.70;49.40
32534;DHT22;18973;48.580;8.912;2023-04-05T13:37:27;12.40;48.80
32534;DHT22;18973;48.580;8.912;2023-04-05T13:39:52;12.50;50.90
32534;DHT22;18973;48.580;8.912;2023-04-05T13:42:18;12.60;48.90
32534;DHT22;18973;48.580;8.912;2023-04-05T13:44:44;12.90;51.80
32534;DHT22;18973;48.580;8.912;2023-04-05T13:47:10;13.10;50.00
32534;DHT22;18973;48.580;8.912;2023-04-05T13:49:35;13.10;46.20
32534;DHT22;18973;48.580;8.912;2023-04-05T13:52:01;13.10;48.60
32534;DHT22;18973;48.580;8.912;2023-04-05T13:54:27;13.20;48.60
32534;DHT22;18973;48.580;8.912;2023-04-05T13:56:53;13.20;45.60
32534;DHT22;18973;48.580;8.912;2023-04-05T13:59:19;13.10;46.60
32534;DHT22;18973;48.580;8.912;2023-04-05T14:01:45;13.10;46.50
32534;DHT22;18973;48.580;8.912;2023-04-05T14:04:11;13.10;47.00
32534;DHT22;18973;48.580;8.912;2023-04-05T14:06:37;13.10;47.80
32534;DHT22;18973;48.580;8.912;2023-04-05T14:09:03;13.10;48.90
32534;DHT22;18973;48.580;8.912;2023-04-05T14:11:31;12.60;47.80
32534;DHT22;18973;48.580;8.912;2023-04-05T14:13:57;12.60;47.30
32534;DHT22;18973;48.580;8.912;2023-04-05T14:16:23;12.80;49.50
32534;DHT22;18973;48.580;8.912;2023-04-05T14:18:49;13.00;49.80
32534;DHT22;18973;48.580;8.912;2023-04-05T14:21:14;13.10;45.60
32534;DHT22;18973;48.580;8.912;2023-04-05T14:23:43;13.10;47.20
32534;DHT22;18973;48.580;8.912;2023-04-05T14:26:08;13.20;45.70
32534;DHT22;18973;48.580;8.912;2023-04-05T14:28:34;13.00;46.50
32534;DHT22;18973;48.580;8.912;2023-04-05T14:31:00;13.10;48.50
32534;DHT22;18973;48.580;8.912;2023-04-05T14:33:25;13.10;47.30
32534;DHT22;18973;48.580;8.912;2023-04-05T14:35:52;13.00;48.30
32534;DHT22;18973;48.580;8.912;2023-04-05T14:38:18;12.90;47.30
32534;DHT22;18973;48.580;8.912;2023-04-05T14:40:44;12.90;46.40
32534;DHT22;18973;48.580;8.912;2023-04-05T14:43:10;12.80;44.70
32534;DHT22;18973;48.580;8.912;2023-04-05T14:45:36;12.80;48.10
32534;DHT22;18973;48.580;8.912;2023-04-05T14:48:02;12.90;45.80
32534;DHT22;18973;48.580;8.912;2023-04-05T14:50:28;12.90;46.30
32534;DHT22;18973;48.580;8.912;2023-04-05T14:52:57;12.80;45.20
32534;DHT22;18973;48.580;8.912;2023-04-05T14:55:23;12.80;46.20
32534;DHT22;18973;48.580;8.912;2023-04-05T14:57:49;12.80;47.50
32534;DHT22;18973;48.580;8.912;2023-04-05T15:00:16;12.70;46.90
32534;DHT22;18973;48.580;8.912;2023-04-05T15:02:44;12.70;46.70
32534;DHT22;18973;48.580;8.912;2023-04-05T15:05:10;12.40;47.20
32534;DHT22;18973;48.580;8.912;2023-04-05T15:07:35;12.50;50.30
32534;DHT22;18973;48.580;8.912;2023-04-05T15:10:01;12.50;46.40
32534;DHT22;18973;48.580;8.912;2023-04-05T15:12:27;12.50;46.60
32534;DHT22;18973;48.580;8.912;2023-04-05T15:14:53;12.50;46.40
32534;DHT22;18973;48.580;8.912;2023-04-05T15:17:20;12.50;48.30
32534;DHT22;18973;48.580;8.912;2023-04-05T15:19:46;12.60;47.00
32534;DHT22;18973;48.580;8.912;2023-04-05T15:22:12;12.50;46.30
32534;DHT22;18973;48.580;8.912;2023-04-05T15:24:39;12.50;44.70
32534;DHT22;18973;48.580;8.912;2023-04-05T15:27:10;12.40;45.00
32534;DHT22;18973;48.580;8.912;2023-04-05T15:29:36;12.30;45.50
32534;DHT22;18973;48.580;8.912;2023-04-05T15:32:02;12.30;46.40
32534;DHT22;18973;48.580;8.912;2023-04-05T15:34:29;12.40;47.40
32534;DHT22;18973;48.580;8.912;2023-04-05T15:36:55;12.40;46.80
32534;DHT22;18973;48.580;8.912;2023-04-05T15:39:21;12.30;45.70
32534;DHT22;18973;48.580;8.912;2023-04-05T15:41:47;12.30;47.20
32534;DHT22;18973;48.580;8.912;2023-04-05T15:44:13;12.10;46.10
32534;DHT22;18973;48.580;8.912;2023-04-05T15:46:39;12.00;46.60
32534;DHT22;18973;48.580;8.912;2023-04-05T15:49:05;11.70;45.60
32534;DHT22;18973;48.580;8.912;2023-04-05T15:51:32;11.40;44.70
32534;DHT22;18973;48.580;8.912;2023-04-05T15:53:58;10.90;45.00
32534;DHT22;18973;48.580;8.912;2023-04-05T15:56:24;11.10;45.40
32534;DHT22;18973;48.580;8.912;2023-04-05T15:58:53;11.20;45.90
32534;DHT22;18973;48.580;8.912;2023-04-05T16:01:18;11.30;47.20
32534;DHT22;18973;48.580;8.912;2023-04-05T16:03:44;11.50;47.80
32534;DHT22;18973;48.580;8.912;2023-04-05T16:06:13;11.50;47.50
32534;DHT22;18973;48.580;8.912;2023-04-05T16:08:39;11.40;49.80
32534;DHT22;18973;48.580;8.912;2023-04-05T16:11:05;11.50;48.00
32534;DHT22;18973;48.580;8.912;2023-04-05T16:13:33;11.40;47.80
32534;DHT22;18973;48.580;8.912;2023-04-05T16:15:59;11.30;47.50
32534;DHT22;18973;48.580;8.912;2023-04-05T16:18:25;11.20;47.80
32534;DHT22;18973;48.580;8.912;2023-04-05T16:20:54;11.10;47.70
32534;DHT22;18973;48.580;8.912;2023-04-05T16:23:20;10.90;46.60